sensor_id;sensor_type;location;lat;lon;timestamp;temperature;humidity
728;DHT22;347;48.780;9.158;2023-06-10T00:00:42;20.90;20.20
728;DHT22;347;48.780;9.158;2023-06-10T00:03:08;20.90;20.40
728;DHT22;347;48.780;9.158;2023-06-10T00:05:37;20.90;20.60
728;DHT22;347;48.780;9.158;2023-06-10T00:08:05;20.90;20.50
728;DHT22;347;48.780;9.158;2023-06-10T00:10:36;20.90;20.40
728;DHT22;347;48.780;9.158;2023-06-10T00:13:04;20.90;20.50
728;DHT22;347;48.780;9.158;2023-06-10T00:15:31;20.90;20.40
728;DHT22;347;48.780;9.158;2023-06-10T00:17:57;20.90;20.70
728;DHT22;347;48.780;9.158;2023-06-10T00:20:23;20.90;20.90
728;DHT22;347;48.780;9.158;2023-06-10T00:22:49;20.90;20.90
728;DHT22;347;48.780;9.158;2023-06-10T00:25:15;20.90;21.00
728;DHT22;347;48.780;9.158;2023-06-10T00:27:41;20.90;21.00
728;DHT22;347;48.780;9.158;2023-06-10T00:30:07;20.90;21.00
728;DHT22;347;48.780;9.158;2023-06-10T00:32:33;20.80;21.20
728;DHT22;347;48.780;9.158;2023-06-10T00:34:59;20.80;21.20
728;DHT22;347;48.780;9.158;2023-06-10T00:37:24;20.80;21.40
728;DHT22;347;48.780;9.158;2023-06-10T00:39:50;20.80;21.50
728;DHT22;347;48.780;9.158;2023-06-10T00:42:16;20.80;21.50
728;DHT22;347;48.780;9.158;2023-06-10T00:44:42;20.70;21.60
728;DHT22;347;48.780;9.158;2023-06-10T00:47:08;20.70;21.70
728;DHT22;347;48.780;9.158;2023-06-10T00:49:34;20.70;21.90
728;DHT22;347;48.780;9.158;2023-06-10T00:52:01;20.70;21.70
728;DHT22;347;48.780;9.158;2023-06-10T00:54:27;20.70;21.90
728;DHT22;347;48.780;9.158;2023-06-10T00:56:53;20.70;21.90
728;DHT22;347;48.780;9.158;2023-06-10T00:59:20;20.70;22.00
728;DHT22;347;48.780;9.158;2023-06-10T01:01:46;20.60;22.10
728;DHT22;347;48.780;9.158;2023-06-10T01:04:13;20.60;22.10
728;DHT22;347;48.780;9.158;2023-06-10T01:12:19;20.60;22.10
728;DHT22;347;48.780;9.158;2023-06-10T01:14:47;20.60;22.10
728;DHT22;347;48.780;9.158;2023-06-10T01:17:14;20.60;22.40
728;DHT22;347;48.780;9.158;2023-06-10T01:19:41;20.60;22.40
728;DHT22;347;48.780;9.158;2023-06-10T01:22:09;20.60;22.50
728;DHT22;347;48.780;9.158;2023-06-10T01:24:36;20.50;22.60
728;DHT22;347;48.780;9.158;2023-06-10T01:27:07;20.50;22.50
728;DHT22;347;48.780;9.158;2023-06-10T01:29:48;20.50;22.50
728;DHT22;347;48.780;9.158;2023-06-10T01:32:26;20.50;22.60
728;DHT22;347;48.780;9.158;2023-06-10T01:34:54;20.40;22.80
728;DHT22;347;48.780;9.158;2023-06-10T01:37:22;20.40;23.10
728;DHT22;347;48.780;9.158;2023-06-10T01:39:50;20.40;23.30
728;DHT22;347;48.780;9.158;2023-06-10T01:42:17;20.40;23.40
728;DHT22;347;48.780;9.158;2023-06-10T01:44:43;20.30;23.50
728;DHT22;347;48.780;9.158;2023-06-10T01:47:09;20.20;24.30
728;DHT22;347;48.780;9.158;2023-06-10T01:49:34;20.10;24.10
728;DHT22;347;48.780;9.158;2023-06-10T01:52:00;20.00;24.10
728;DHT22;347;48.780;9.158;2023-06-10T01:54:26;19.90;24.40
728;DHT22;347;48.780;9.158;2023-06-10T01:56:51;20.00;24.20
728;DHT22;347;48.780;9.158;2023-06-10T01:59:17;20.10;24.20
728;DHT22;347;48.780;9.158;2023-06-10T02:01:43;20.10;23.90
728;DHT22;347;48.780;9.158;2023-06-10T02:04:08;20.10;23.70
728;DHT22;347;48.780;9.158;2023-06-10T02:06:34;20.20;23.80
728;DHT22;347;48.780;9.158;2023-06-10T02:09:00;20.20;23.50
728;DHT22;347;48.780;9.158;2023-06-10T02:11:26;20.20;23.40
728;DHT22;347;48.780;9.158;2023-06-10T02:13:52;20.10;23.20
728;DHT22;347;48.780;9.158;2023-06-10T02:16:17;20.10;23.20
728;DHT22;347;48.780;9.158;2023-06-10T02:18:44;20.20;23.30
728;DHT22;347;48.780;9.158;2023-06-10T02:21:10;20.20;23.50
728;DHT22;347;48.780;9.158;2023-06-10T02:23:36;20.10;23.20
728;DHT22;347;48.780;9.158;2023-06-10T02:26:02;20.20;23.50
728;DHT22;347;48.780;9.158;2023-06-10T02:28:27;20.10;23.20
728;DHT22;347;48.780;9.158;2023-06-10T02:30:53;20.20;23.40
728;DHT22;347;48.780;9.158;2023-06-10T02:33:19;20.10;23.20
728;DHT22;347;48.780;9.158;2023-06-10T02:35:45;20.10;23.20
728;DHT22;347;48.780;9.158;2023-06-10T02:38:11;20.10;23.00
728;DHT22;347;48.780;9.158;2023-06-10T02:40:37;20.10;22.90
728;DHT22;347;48.780;9.158;2023-06-10T02:43:02;20.10;22.70
728;DHT22;347;48.780;9.158;2023-06-10T02:45:28;20.10;23.00
728;DHT22;347;48.780;9.158;2023-06-10T02:47:53;20.10;22.90
728;DHT22;347;48.780;9.158;2023-06-10T02:50:19;20.10;22.80
728;DHT22;347;48.780;9.158;2023-06-10T02:52:45;20.10;23.40
728;DHT22;347;48.780;9.158;2023-06-10T02:55:11;20.10;22.90
728;DHT22;347;48.780;9.158;2023-06-10T02:57:36;20.00;22.80
728;DHT22;347;48.780;9.158;2023-06-10T03:00:02;20.00;22.80
728;DHT22;347;48.780;9.158;2023-06-10T03:02:34;20.00;22.80
728;DHT22;347;48.780;9.158;2023-06-10T03:05:02;20.00;23.00
728;DHT22;347;48.780;9.158;2023-06-10T03:07:28;19.90;22.80
728;DHT22;347;48.780;9.158;2023-06-10T03:09:54;19.90;23.00
728;DHT22;347;48.780;9.158;2023-06-10T03:12:19;19.90;23.00
728;DHT22;347;48.780;9.158;2023-06-10T03:14:45;19.80;23.30
728;DHT22;347;48.780;9.158;2023-06-10T03:17:11;19.80;23.10
728;DHT22;347;48.780;9.158;2023-06-10T03:19:36;19.80;23.30
728;DHT22;347;48.780;9.158;2023-06-10T03:22:16;19.80;23.40
728;DHT22;347;48.780;9.158;2023-06-10T03:24:42;19.80;23.50
728;DHT22;347;48.780;9.158;2023-06-10T03:27:09;19.80;23.40
728;DHT22;347;48.780;9.158;2023-06-10T03:29:39;19.70;23.30
728;DHT22;347;48.780;9.158;2023-06-10T03:32:05;19.70;23.50
728;DHT22;347;48.780;9.158;2023-06-10T03:34:31;19.70;23.80
728;DHT22;347;48.780;9.158;2023-06-10T03:36:57;19.60;23.90
728;DHT22;347;48.780;9.158;2023-06-10T03:39:23;19.60;24.10
728;DHT22;347;48.780;9.158;2023-06-10T03:41:50;19.60;24.00
728;DHT22;347;48.780;9.158;2023-06-10T03:44:15;19.60;23.80
728;DHT22;347;48.780;9.158;2023-06-10T03:46:41;19.60;23.90
728;DHT22;347;48.780;9.158;2023-06-10T03:49:07;19.60;24.10
728;DHT22;347;48.780;9.158;2023-06-10T03:51:35;19.60;24.10
728;DHT22;347;48.780;9.158;2023-06-10T03:54:01;19.60;24.20
728;DHT22;347;48.780;9.158;2023-06-10T03:56:26;19.60;24.70
728;DHT22;347;48.780;9.158;2023-06-10T03:58:53;19.60;24.20
728;DHT22;347;48.780;9.158;2023-06-10T04:01:20;19.60;24.10
728;DHT22;347;48.780;9.158;2023-06-10T04:03:47;19.50;24.50
728;DHT22;347;48.780;9.158;2023-06-10T04:06:14;19.60;24.10
728;DHT22;347;48.780;9.158;2023-06-10T04:08:41;19.60;24.40
728;DHT22;347;48.780;9.158;2023-06-10T04:11:06;19.60;24.40
728;DHT22;347;48.780;9.158;2023-06-10T04:13:32;19.50;24.30
728;DHT22;347;48.780;9.158;2023-06-10T04:15:58;19.50;24.20
728;DHT22;347;48.780;9.158;2023-06-10T04:18:23;19.50;24.30
728;DHT22;347;48.780;9.158;2023-06-10T04:20:49;19.50;24.40
728;DHT22;347;48.780;9.158;2023-06-10T04:23:14;19.40;24.60
728;DHT22;347;48.780;9.158;2023-06-10T04:25:40;19.40;24.70
728;DHT22;347;48.780;9.158;2023-06-10T04:28:06;19.40;24.50
728;DHT22;347;48.780;9.158;2023-06-10T04:30:31;19.40;24.50
728;DHT22;347;48.780;9.158;2023-06-10T04:32:58;19.40;24.90
728;DHT22;347;48.780;9.158;2023-06-10T04:35:23;19.40;25.00
728;DHT22;347;48.780;9.158;2023-06-10T04:37:52;19.50;24.90
728;DHT22;347;48.780;9.158;2023-06-10T04:40:17;19.50;25.00
728;DHT22;347;48.780;9.158;2023-06-10T04:42:43;19.60;25.10
728;DHT22;347;48.780;9.158;2023-06-10T04:45:09;19.60;25.00
728;DHT22;347;48.780;9.158;2023-06-10T04:47:34;19.60;25.20
728;DHT22;347;48.780;9.158;2023-06-10T04:50:01;19.70;25.30
728;DHT22;347;48.780;9.158;2023-06-10T04:52:27;19.70;25.10
728;DHT22;347;48.780;9.158;2023-06-10T04:54:53;19.70;25.20
728;DHT22;347;48.780;9.158;2023-06-10T04:57:19;19.70;25.20
728;DHT22;347;48.780;9.158;2023-06-10T04:59:46;19.70;25.40
728;DHT22;347;48.780;9.158;2023-06-10T05:02:11;19.70;25.40
728;DHT22;347;48.780;9.158;2023-06-10T05:04:37;19.70;25.70
728;DHT22;347;48.780;9.158;2023-06-10T05:07:03;19.80;25.70
728;DHT22;347;48.780;9.158;2023-06-10T05:09:29;19.80;25.50
728;DHT22;347;48.780;9.158;2023-06-10T05:11:55;19.80;25.50
728;DHT22;347;48.780;9.158;2023-06-10T05:14:21;19.80;25.40
728;DHT22;347;48.780;9.158;2023-06-10T05:16:48;19.80;25.10
728;DHT22;347;48.780;9.158;2023-06-10T05:19:13;19.80;25.50
728;DHT22;347;48.780;9.158;2023-06-10T05:21:39;19.80;25.70
728;DHT22;347;48.780;9.158;2023-06-10T05:24:05;19.80;25.00
728;DHT22;347;48.780;9.158;2023-06-10T05:26:31;19.90;25.00
728;DHT22;347;48.780;9.158;2023-06-10T05:28:59;19.90;25.20
728;DHT22;347;48.780;9.158;2023-06-10T05:31:24;19.90;25.40
728;DHT22;347;48.780;9.158;2023-06-10T05:33:50;19.90;25.30
728;DHT22;347;48.780;9.158;2023-06-10T05:36:16;19.90;25.40
728;DHT22;347;48.780;9.158;2023-06-10T05:38:42;19.90;25.40
728;DHT22;347;48.780;9.158;2023-06-10T05:41:07;20.00;25.70
728;DHT22;347;48.780;9.158;2023-06-10T05:43:33;20.00;25.50
728;DHT22;347;48.780;9.158;2023-06-10T05:45:59;20.00;25.30
728;DHT22;347;48.780;9.158;2023-06-10T05:48:24;20.00;25.50
728;DHT22;347;48.780;9.158;2023-06-10T05:50:50;20.10;25.30
728;DHT22;347;48.780;9.158;2023-06-10T05:53:16;20.10;25.50
728;DHT22;347;48.780;9.158;2023-06-10T05:55:43;20.10;25.30
728;DHT22;347;48.780;9.158;2023-06-10T05:58:09;20.20;25.20
728;DHT22;347;48.780;9.158;2023-06-10T06:00:35;20.10;25.60
728;DHT22;347;48.780;9.158;2023-06-10T06:03:00;20.20;25.60
728;DHT22;347;48.780;9.158;2023-06-10T06:05:26;20.20;26.00
728;DHT22;347;48.780;9.158;2023-06-10T06:07:52;20.20;25.10
728;DHT22;347;48.780;9.158;2023-06-10T06:10:18;20.30;25.40
728;DHT22;347;48.780;9.158;2023-06-10T06:12:44;20.30;25.60
728;DHT22;347;48.780;9.158;2023-06-10T06:15:11;20.30;25.40
728;DHT22;347;48.780;9.158;2023-06-10T06:17:36;20.40;25.40
728;DHT22;347;48.780;9.158;2023-06-10T06:20:03;20.40;25.30
728;DHT22;347;48.780;9.158;2023-06-10T06:22:29;20.40;25.40
728;DHT22;347;48.780;9.158;2023-06-10T06:24:55;20.40;25.60
728;DHT22;347;48.780;9.158;2023-06-10T06:27:20;20.40;25.50
728;DHT22;347;48.780;9.158;2023-06-10T06:29:46;20.50;25.80
728;DHT22;347;48.780;9.158;2023-06-10T06:32:12;20.50;25.90
728;DHT22;347;48.780;9.158;2023-06-10T06:34:38;20.50;25.60
728;DHT22;347;48.780;9.158;2023-06-10T06:37:03;20.50;25.30
728;DHT22;347;48.780;9.158;2023-06-10T06:39:29;20.60;25.30
728;DHT22;347;48.780;9.158;2023-06-10T06:41:55;20.70;24.50
728;DHT22;347;48.780;9.158;2023-06-10T06:44:21;20.70;24.50
728;DHT22;347;48.780;9.158;2023-06-10T06:46:46;20.70;24.70
728;DHT22;347;48.780;9.158;2023-06-10T06:49:12;20.80;24.80
728;DHT22;347;48.780;9.158;2023-06-10T06:51:37;20.90;24.30
728;DHT22;347;48.780;9.158;2023-06-10T06:54:03;20.90;24.10
728;DHT22;347;48.780;9.158;2023-06-10T06:56:31;21.00;24.20
728;DHT22;347;48.780;9.158;2023-06-10T06:58:56;21.00;24.20
728;DHT22;347;48.780;9.158;2023-06-10T07:01:22;21.00;23.90
728;DHT22;347;48.780;9.158;2023-06-10T07:03:48;21.10;23.90
728;DHT22;347;48.780;9.158;2023-06-10T07:06:14;21.20;24.10
728;DHT22;347;48.780;9.158;2023-06-10T07:08:39;21.20;23.90
728;DHT22;347;48.780;9.158;2023-06-10T07:11:05;21.20;24.30
728;DHT22;347;48.780;9.158;2023-06-10T07:13:31;21.20;24.40
728;DHT22;347;48.780;9.158;2023-06-10T07:15:56;21.20;24.60
728;DHT22;347;48.780;9.158;2023-06-10T07:18:22;21.40;23.70
728;DHT22;347;48.780;9.158;2023-06-10T07:20:48;21.50;23.70
728;DHT22;347;48.780;9.158;2023-06-10T07:23:13;21.70;23.50
728;DHT22;347;48.780;9.158;2023-06-10T07:25:41;21.70;22.80
728;DHT22;347;48.780;9.158;2023-06-10T07:28:06;21.70;23.30
728;DHT22;347;48.780;9.158;2023-06-10T07:30:32;21.70;22.80
728;DHT22;347;48.780;9.158;2023-06-10T07:32:57;21.70;22.80
728;DHT22;347;48.780;9.158;2023-06-10T07:35:23;21.80;22.90
728;DHT22;347;48.780;9.158;2023-06-10T07:37:49;21.80;22.90
728;DHT22;347;48.780;9.158;2023-06-10T07:40:14;21.80;22.90
728;DHT22;347;48.780;9.158;2023-06-10T07:42:40;21.80;22.90
728;DHT22;347;48.780;9.158;2023-06-10T07:45:07;21.80;23.20
728;DHT22;347;48.780;9.158;2023-06-10T07:47:33;21.80;23.40
728;DHT22;347;48.780;9.158;2023-06-10T07:49:59;21.80;22.90
728;DHT22;347;48.780;9.158;2023-06-10T07:52:25;21.90;23.00
728;DHT22;347;48.780;9.158;2023-06-10T07:54:51;22.20;22.10
728;DHT22;347;48.780;9.158;2023-06-10T07:57:18;22.20;22.00
728;DHT22;347;48.780;9.158;2023-06-10T07:59:44;22.20;22.30
728;DHT22;347;48.780;9.158;2023-06-10T08:02:10;22.40;22.40
728;DHT22;347;48.780;9.158;2023-06-10T08:04:35;22.40;22.10
728;DHT22;347;48.780;9.158;2023-06-10T08:07:01;22.50;22.00
728;DHT22;347;48.780;9.158;2023-06-10T08:09:28;22.50;21.80
728;DHT22;347;48.780;9.158;2023-06-10T08:11:53;22.70;21.60
728;DHT22;347;48.780;9.158;2023-06-10T08:14:19;22.60;21.10
728;DHT22;347;48.780;9.158;2023-06-10T08:16:45;22.60;21.80
728;DHT22;347;48.780;9.158;2023-06-10T08:19:11;22.70;21.40
728;DHT22;347;48.780;9.158;2023-06-10T08:21:36;22.80;21.20
728;DHT22;347;48.780;9.158;2023-06-10T08:24:08;22.80;21.00
728;DHT22;347;48.780;9.158;2023-06-10T08:26:34;22.80;21.50
728;DHT22;347;48.780;9.158;2023-06-10T08:29:00;22.90;20.50
728;DHT22;347;48.780;9.158;2023-06-10T08:31:26;22.90;20.60
728;DHT22;347;48.780;9.158;2023-06-10T08:33:52;23.00;20.40
728;DHT22;347;48.780;9.158;2023-06-10T08:36:17;23.10;20.30
728;DHT22;347;48.780;9.158;2023-06-10T08:38:43;23.20;20.10
728;DHT22;347;48.780;9.158;2023-06-10T08:41:09;23.30;19.50
728;DHT22;347;48.780;9.158;2023-06-10T08:43:42;23.30;20.00
728;DHT22;347;48.780;9.158;2023-06-10T08:46:09;23.70;19.00
728;DHT22;347;48.780;9.158;2023-06-10T08:48:40;23.80;18.30
728;DHT22;347;48.780;9.158;2023-06-10T08:51:10;23.80;18.20
728;DHT22;347;48.780;9.158;2023-06-10T08:53:37;24.10;17.80
728;DHT22;347;48.780;9.158;2023-06-10T08:56:04;24.20;17.70
728;DHT22;347;48.780;9.158;2023-06-10T08:58:32;24.20;17.50
728;DHT22;347;48.780;9.158;2023-06-10T09:01:10;24.10;17.70
728;DHT22;347;48.780;9.158;2023-06-10T09:03:39;24.10;17.10
728;DHT22;347;48.780;9.158;2023-06-10T09:06:05;24.20;17.00
728;DHT22;347;48.780;9.158;2023-06-10T09:08:33;24.30;17.40
728;DHT22;347;48.780;9.158;2023-06-10T09:11:00;24.50;16.30
728;DHT22;347;48.780;9.158;2023-06-10T09:13:26;24.70;16.30
728;DHT22;347;48.780;9.158;2023-06-10T09:15:51;24.70;16.30
728;DHT22;347;48.780;9.158;2023-06-10T09:18:17;24.80;16.10
728;DHT22;347;48.780;9.158;2023-06-10T09:20:43;24.90;15.80
728;DHT22;347;48.780;9.158;2023-06-10T09:23:09;25.00;15.40
728;DHT22;347;48.780;9.158;2023-06-10T09:25:36;25.00;15.20
728;DHT22;347;48.780;9.158;2023-06-10T09:28:03;24.90;15.90
728;DHT22;347;48.780;9.158;2023-06-10T09:30:30;25.00;16.20
728;DHT22;347;48.780;9.158;2023-06-10T09:32:58;25.10;15.40
728;DHT22;347;48.780;9.158;2023-06-10T09:35:25;25.20;15.60
728;DHT22;347;48.780;9.158;2023-06-10T09:37:56;25.30;15.10
728;DHT22;347;48.780;9.158;2023-06-10T09:40:22;25.40;14.80
728;DHT22;347;48.780;9.158;2023-06-10T09:42:56;25.40;14.60
728;DHT22;347;48.780;9.158;2023-06-10T09:45:23;25.50;14.90
728;DHT22;347;48.780;9.158;2023-06-10T09:47:53;25.40;14.80
728;DHT22;347;48.780;9.158;2023-06-10T09:50:19;25.50;14.70
728;DHT22;347;48.780;9.158;2023-06-10T09:52:46;25.90;14.10
728;DHT22;347;48.780;9.158;2023-06-10T09:55:12;26.20;13.40
728;DHT22;347;48.780;9.158;2023-06-10T09:57:38;26.30;13.00
728;DHT22;347;48.780;9.158;2023-06-10T10:00:09;26.50;12.80
728;DHT22;347;48.780;9.158;2023-06-10T10:02:49;26.50;13.00
728;DHT22;347;48.780;9.158;2023-06-10T10:05:19;26.50;12.80
728;DHT22;347;48.780;9.158;2023-06-10T10:07:46;26.50;12.80
728;DHT22;347;48.780;9.158;2023-06-10T10:10:13;26.60;12.40
728;DHT22;347;48.780;9.158;2023-06-10T10:12:40;26.60;12.20
728;DHT22;347;48.780;9.158;2023-06-10T10:15:07;26.60;12.40
728;DHT22;347;48.780;9.158;2023-06-10T10:17:38;26.70;12.00
728;DHT22;347;48.780;9.158;2023-06-10T10:20:05;26.80;12.50
728;DHT22;347;48.780;9.158;2023-06-10T10:22:38;26.90;11.60
728;DHT22;347;48.780;9.158;2023-06-10T10:25:16;26.90;12.00
728;DHT22;347;48.780;9.158;2023-06-10T10:27:48;27.00;11.60
728;DHT22;347;48.780;9.158;2023-06-10T10:30:17;27.20;11.10
728;DHT22;347;48.780;9.158;2023-06-10T10:32:58;27.20;10.70
728;DHT22;347;48.780;9.158;2023-06-10T10:35:25;27.30;10.70
728;DHT22;347;48.780;9.158;2023-06-10T10:37:52;27.30;10.90
728;DHT22;347;48.780;9.158;2023-06-10T10:40:20;27.40;11.60
728;DHT22;347;48.780;9.158;2023-06-10T10:42:48;27.40;10.70
728;DHT22;347;48.780;9.158;2023-06-10T10:45:14;27.50;10.50
728;DHT22;347;48.780;9.158;2023-06-10T10:47:41;27.50;10.10
728;DHT22;347;48.780;9.158;2023-06-10T10:50:19;27.50;10.00
728;DHT22;347;48.780;9.158;2023-06-10T10:55:22;27.70;10.30
728;DHT22;347;48.780;9.158;2023-06-10T10:57:58;27.60;9.60
728;DHT22;347;48.780;9.158;2023-06-10T11:02:52;27.60;10.70
728;DHT22;347;48.780;9.158;2023-06-10T11:08:03;27.40;10.50
728;DHT22;347;48.780;9.158;2023-06-10T11:10:34;27.20;11.00
728;DHT22;347;48.780;9.158;2023-06-10T11:13:00;27.00;11.50
728;DHT22;347;48.780;9.158;2023-06-10T11:15:30;26.80;11.60
728;DHT22;347;48.780;9.158;2023-06-10T11:18:25;26.80;12.20
728;DHT22;347;48.780;9.158;2023-06-10T11:21:01;26.70;12.30
728;DHT22;347;48.780;9.158;2023-06-10T11:26:44;26.70;11.60
728;DHT22;347;48.780;9.158;2023-06-10T11:29:05;26.60;11.90
728;DHT22;347;48.780;9.158;2023-06-10T11:31:32;26.80;11.70
728;DHT22;347;48.780;9.158;2023-06-10T11:34:00;26.70;11.80
728;DHT22;347;48.780;9.158;2023-06-10T11:36:27;26.90;11.90
728;DHT22;347;48.780;9.158;2023-06-10T11:38:56;26.90;11.30
728;DHT22;347;48.780;9.158;2023-06-10T11:41:24;27.00;10.70
728;DHT22;347;48.780;9.158;2023-06-10T11:43:52;27.00;10.50
728;DHT22;347;48.780;9.158;2023-06-10T11:46:19;26.90;11.10
728;DHT22;347;48.780;9.158;2023-06-10T11:48:56;26.90;10.90
728;DHT22;347;48.780;9.158;2023-06-10T11:51:25;26.80;11.10
728;DHT22;347;48.780;9.158;2023-06-10T11:53:52;26.90;10.80
728;DHT22;347;48.780;9.158;2023-06-10T11:56:23;26.80;11.20
728;DHT22;347;48.780;9.158;2023-06-10T11:58:54;26.70;11.70
728;DHT22;347;48.780;9.158;2023-06-10T12:01:21;26.70;11.00
728;DHT22;347;48.780;9.158;2023-06-10T12:03:57;27.00;10.50
728;DHT22;347;48.780;9.158;2023-06-10T12:06:23;27.20;10.60
728;DHT22;347;48.780;9.158;2023-06-10T12:08:49;27.10;10.40
728;DHT22;347;48.780;9.158;2023-06-10T12:11:14;26.90;10.60
728;DHT22;347;48.780;9.158;2023-06-10T12:13:46;26.90;10.70
728;DHT22;347;48.780;9.158;2023-06-10T12:16:15;26.80;10.90
728;DHT22;347;48.780;9.158;2023-06-10T12:18:43;26.70;10.70
728;DHT22;347;48.780;9.158;2023-06-10T12:21:17;26.60;11.10
728;DHT22;347;48.780;9.158;2023-06-10T12:24:05;26.60;10.70
728;DHT22;347;48.780;9.158;2023-06-10T12:26:39;26.80;10.90
728;DHT22;347;48.780;9.158;2023-06-10T12:32:02;26.70;10.40
728;DHT22;347;48.780;9.158;2023-06-10T12:34:30;26.70;10.50
728;DHT22;347;48.780;9.158;2023-06-10T12:36:56;26.60;10.50
728;DHT22;347;48.780;9.158;2023-06-10T12:39:22;26.50;10.30
728;DHT22;347;48.780;9.158;2023-06-10T12:41:48;26.40;10.10
728;DHT22;347;48.780;9.158;2023-06-10T12:44:15;26.30;10.10
728;DHT22;347;48.780;9.158;2023-06-10T12:46:40;26.30;10.40
728;DHT22;347;48.780;9.158;2023-06-10T12:49:06;26.40;10.60
728;DHT22;347;48.780;9.158;2023-06-10T12:51:32;26.40;10.90
728;DHT22;347;48.780;9.158;2023-06-10T12:53:57;26.30;10.50
728;DHT22;347;48.780;9.158;2023-06-10T12:56:23;26.30;10.80
728;DHT22;347;48.780;9.158;2023-06-10T12:58:49;26.30;10.60
728;DHT22;347;48.780;9.158;2023-06-10T13:01:14;26.30;10.90
728;DHT22;347;48.780;9.158;2023-06-10T13:03:40;26.70;9.70
728;DHT22;347;48.780;9.158;2023-06-10T13:06:06;26.60;10.10
728;DHT22;347;48.780;9.158;2023-06-10T13:08:32;26.60;9.90
728;DHT22;347;48.780;9.158;2023-06-10T13:10:58;26.60;10.40
728;DHT22;347;48.780;9.158;2023-06-10T13:13:24;26.60;10.40
728;DHT22;347;48.780;9.158;2023-06-10T13:15:49;26.60;10.30
728;DHT22;347;48.780;9.158;2023-06-10T13:18:15;26.70;10.10
728;DHT22;347;48.780;9.158;2023-06-10T13:20:44;26.70;10.30
728;DHT22;347;48.780;9.158;2023-06-10T13:23:10;26.70;10.30
728;DHT22;347;48.780;9.158;2023-06-10T13:25:35;26.60;10.10
728;DHT22;347;48.780;9.158;2023-06-10T13:28:01;26.60;10.30
728;DHT22;347;48.780;9.158;2023-06-10T13:30:27;26.60;9.90
728;DHT22;347;48.780;9.158;2023-06-10T13:32:53;26.60;10.00
728;DHT22;347;48.780;9.158;2023-06-10T13:35:19;26.60;10.10
728;DHT22;347;48.780;9.158;2023-06-10T13:37:44;26.60;9.70
728;DHT22;347;48.780;9.158;2023-06-10T13:40:11;26.50;9.90
728;DHT22;347;48.780;9.158;2023-06-10T13:42:37;26.50;9.80
728;DHT22;347;48.780;9.158;2023-06-10T13:45:03;26.90;8.50
728;DHT22;347;48.780;9.158;2023-06-10T13:47:29;26.90;8.50
728;DHT22;347;48.780;9.158;2023-06-10T13:49:55;26.90;9.00
728;DHT22;347;48.780;9.158;2023-06-10T13:52:20;26.80;9.50
728;DHT22;347;48.780;9.158;2023-06-10T13:54:46;26.80;9.10
728;DHT22;347;48.780;9.158;2023-06-10T13:57:12;26.80;9.40
728;DHT22;347;48.780;9.158;2023-06-10T13:59:37;26.70;8.90
728;DHT22;347;48.780;9.158;2023-06-10T14:02:03;26.60;10.00
728;DHT22;347;48.780;9.158;2023-06-10T14:04:29;26.50;9.60
728;DHT22;347;48.780;9.158;2023-06-10T14:06:55;26.40;9.90
728;DHT22;347;48.780;9.158;2023-06-10T14:09:20;26.30;10.20
728;DHT22;347;48.780;9.158;2023-06-10T14:11:46;26.30;10.20
728;DHT22;347;48.780;9.158;2023-06-10T14:14:12;26.30;10.30
728;DHT22;347;48.780;9.158;2023-06-10T14:16:40;26.20;9.90
728;DHT22;347;48.780;9.158;2023-06-10T14:19:05;26.30;10.00
728;DHT22;347;48.780;9.158;2023-06-10T14:21:31;26.30;10.20
728;DHT22;347;48.780;9.158;2023-06-10T14:23:57;26.40;9.90
728;DHT22;347;48.780;9.158;2023-06-10T14:26:22;26.40;10.10
728;DHT22;347;48.780;9.158;2023-06-10T14:28:49;26.30;10.10
728;DHT22;347;48.780;9.158;2023-06-10T14:31:15;26.40;9.80
728;DHT22;347;48.780;9.158;2023-06-10T14:33:41;26.60;9.20
728;DHT22;347;48.780;9.158;2023-06-10T14:36:08;26.70;8.60
728;DHT22;347;48.780;9.158;2023-06-10T14:38:34;26.80;8.90
728;DHT22;347;48.780;9.158;2023-06-10T14:41:00;27.10;8.60
728;DHT22;347;48.780;9.158;2023-06-10T14:43:25;27.20;8.70
728;DHT22;347;48.780;9.158;2023-06-10T14:45:51;27.10;8.60
728;DHT22;347;48.780;9.158;2023-06-10T14:48:16;27.00;8.60
728;DHT22;347;48.780;9.158;2023-06-10T14:50:42;27.00;9.20
728;DHT22;347;48.780;9.158;2023-06-10T14:53:10;27.00;9.60
728;DHT22;347;48.780;9.158;2023-06-10T14:55:36;27.00;9.60
728;DHT22;347;48.780;9.158;2023-06-10T14:58:01;26.90;9.40
728;DHT22;347;48.780;9.158;2023-06-10T15:00:27;26.90;9.70
728;DHT22;347;48.780;9.158;2023-06-10T15:02:53;26.90;9.60
728;DHT22;347;48.780;9.158;2023-06-10T15:05:21;27.00;8.70
728;DHT22;347;48.780;9.158;2023-06-10T15:07:47;27.10;8.60
728;DHT22;347;48.780;9.158;2023-06-10T15:10:13;27.30;8.70
728;DHT22;347;48.780;9.158;2023-06-10T15:12:38;27.20;8.40
728;DHT22;347;48.780;9.158;2023-06-10T15:15:04;27.20;8.70
728;DHT22;347;48.780;9.158;2023-06-10T15:17:30;27.20;8.70
728;DHT22;347;48.780;9.158;2023-06-10T15:19:56;27.20;8.70
728;DHT22;347;48.780;9.158;2023-06-10T15:22:22;27.10;9.30
728;DHT22;347;48.780;9.158;2023-06-10T15:24:47;26.90;9.50
728;DHT22;347;48.780;9.158;2023-06-10T15:27:13;26.80;9.60
728;DHT22;347;48.780;9.158;2023-06-10T15:29:39;26.70;10.30
728;DHT22;347;48.780;9.158;2023-06-10T15:32:05;26.60;9.80
728;DHT22;347;48.780;9.158;2023-06-10T15:34:31;26.60;9.70
728;DHT22;347;48.780;9.158;2023-06-10T15:36:56;26.50;9.70
728;DHT22;347;48.780;9.158;2023-06-10T15:39:22;26.50;9.80
728;DHT22;347;48.780;9.158;2023-06-10T15:41:50;26.60;8.40
728;DHT22;347;48.780;9.158;2023-06-10T15:44:15;26.60;8.50
728;DHT22;347;48.780;9.158;2023-06-10T15:46:41;26.70;8.40
728;DHT22;347;48.780;9.158;2023-06-10T15:49:08;26.90;8.50
728;DHT22;347;48.780;9.158;2023-06-10T15:51:34;26.80;8.90
728;DHT22;347;48.780;9.158;2023-06-10T15:53:59;26.90;8.50
728;DHT22;347;48.780;9.158;2023-06-10T15:56:25;26.80;9.00
728;DHT22;347;48.780;9.158;2023-06-10T15:58:51;26.80;8.80
728;DHT22;347;48.780;9.158;2023-06-10T16:01:17;26.70;9.70
728;DHT22;347;48.780;9.158;2023-06-10T16:03:43;26.70;9.20
728;DHT22;347;48.780;9.158;2023-06-10T16:06:08;26.70;8.80
728;DHT22;347;48.780;9.158;2023-06-10T16:08:34;26.80;9.30
728;DHT22;347;48.780;9.158;2023-06-10T16:10:59;26.80;9.90
728;DHT22;347;48.780;9.158;2023-06-10T16:13:25;26.80;9.20
728;DHT22;347;48.780;9.158;2023-06-10T16:15:51;26.80;9.30
728;DHT22;347;48.780;9.158;2023-06-10T16:18:18;26.70;9.10
728;DHT22;347;48.780;9.158;2023-06-10T16:20:44;26.70;9.10
728;DHT22;347;48.780;9.158;2023-06-10T16:23:10;26.80;9.30
728;DHT22;347;48.780;9.158;2023-06-10T16:25:35;26.80;8.50
728;DHT22;347;48.780;9.158;2023-06-10T16:28:01;26.80;8.50
728;DHT22;347;48.780;9.158;2023-06-10T16:30:30;26.80;9.10
728;DHT22;347;48.780;9.158;2023-06-10T16:32:56;26.80;8.90
728;DHT22;347;48.780;9.158;2023-06-10T16:35:22;26.80;8.80
728;DHT22;347;48.780;9.158;2023-06-10T16:37:47;26.80;9.00
728;DHT22;347;48.780;9.158;2023-06-10T16:40:13;26.70;9.40
728;DHT22;347;48.780;9.158;2023-06-10T16:42:39;26.80;9.60
728;DHT22;347;48.780;9.158;2023-06-10T16:45:05;26.80;9.40
728;DHT22;347;48.780;9.158;2023-06-10T16:47:30;26.70;9.60
728;DHT22;347;48.780;9.158;2023-06-10T16:49:56;26.70;9.70
728;DHT22;347;48.780;9.158;2023-06-10T16:52:22;26.70;8.60